createdAt,value
2018-07-15T00:02:06.451Z,44.60
2018-07-15T00:04:34.757Z,44.30
2018-07-15T00:07:03.106Z,43.30
2018-07-15T00:09:31.452Z,43.50
2018-07-15T00:11:59.764Z,43.00
2018-07-15T00:14:28.309Z,43.20
2018-07-15T00:16:56.540Z,42.90
2018-07-15T00:19:24.925Z,42.90
2018-07-15T00:21:53.167Z,43.50
2018-07-15T00:24:21.579Z,43.40
2018-07-15T00:26:50.166Z,43.50
2018-07-15T00:29:18.579Z,43.60
2018-07-15T00:31:46.829Z,44.10
2018-07-15T00:34:15.181Z,44.50
2018-07-15T00:36:43.550Z,45.00
2018-07-15T00:39:12.816Z,45.00
2018-07-15T00:41:41.029Z,45.50
2018-07-15T00:44:09.454Z,44.80
2018-07-15T00:46:37.715Z,44.80
2018-07-15T00:49:06.350Z,44.90
2018-07-15T00:51:34.718Z,46.10
2018-07-15T00:54:03.030Z,45.70
2018-07-15T00:56:31.296Z,46.50
2018-07-15T00:58:59.581Z,46.00
2018-07-15T01:01:27.953Z,45.40
2018-07-15T01:03:56.217Z,45.30
2018-07-15T01:06:24.505Z,45.30
2018-07-15T01:08:52.762Z,45.60
2018-07-15T01:11:21.090Z,46.10
2018-07-15T01:13:49.454Z,45.20
2018-07-15T01:16:17.659Z,45.50
2018-07-15T01:18:45.934Z,45.60
2018-07-15T01:21:15.295Z,44.80
2018-07-15T01:23:43.705Z,44.50
2018-07-15T01:26:12.045Z,44.40
2018-07-15T01:28:40.314Z,44.20
2018-07-15T01:31:09.683Z,44.00
2018-07-15T01:33:37.908Z,43.90
2018-07-15T01:36:06.439Z,44.20
2018-07-15T01:38:34.868Z,44.30
2018-07-15T01:41:03.205Z,44.60
2018-07-15T01:43:31.432Z,45.00
2018-07-15T01:45:59.913Z,44.80
2018-07-15T01:48:28.384Z,45.10
2018-07-15T01:50:56.658Z,45.30
2018-07-15T01:53:24.937Z,45.20
2018-07-15T01:55:53.206Z,44.90
2018-07-15T01:58:21.643Z,45.00
2018-07-15T02:00:49.972Z,45.50
2018-07-15T02:03:18.201Z,45.80
2018-07-15T02:05:46.477Z,46.00
2018-07-15T02:08:14.960Z,46.00
2018-07-15T02:10:43.633Z,45.90
2018-07-15T02:15:39.898Z,46.40
2018-07-15T02:18:08.214Z,46.40
2018-07-15T02:23:04.674Z,46.30
2018-07-15T02:25:54.478Z,46.80
2018-07-15T02:28:22.712Z,46.50
2018-07-15T02:30:51.198Z,46.60
2018-07-15T02:33:19.425Z,47.40
2018-07-15T02:35:47.658Z,47.40
2018-07-15T02:38:15.865Z,47.40
2018-07-15T02:40:44.857Z,47.60
2018-07-15T02:43:13.237Z,47.30
2018-07-15T02:45:41.812Z,47.60
2018-07-15T02:48:10.018Z,48.20
2018-07-15T02:50:38.285Z,48.30
2018-07-15T02:53:06.685Z,48.20
2018-07-15T02:55:35.100Z,47.90
2018-07-15T02:58:03.408Z,48.10
2018-07-15T03:00:31.830Z,47.90
2018-07-15T03:03:00.934Z,47.70
2018-07-15T03:05:29.365Z,47.50
2018-07-15T03:07:57.965Z,48.30
2018-07-15T03:10:26.245Z,47.70
2018-07-15T03:12:54.553Z,47.50
2018-07-15T03:15:22.976Z,47.90
2018-07-15T03:17:51.357Z,47.70
2018-07-15T03:20:19.954Z,48.50
2018-07-15T03:22:48.189Z,49.20
2018-07-15T03:25:16.509Z,48.90
2018-07-15T03:27:44.730Z,49.10
2018-07-15T03:30:13.478Z,47.60
2018-07-15T03:32:41.967Z,47.00
2018-07-15T03:35:10.214Z,47.50
2018-07-15T03:37:38.498Z,47.90
2018-07-15T03:40:06.950Z,48.90
2018-07-15T03:42:35.176Z,49.20
2018-07-15T03:45:04.549Z,48.70
2018-07-15T03:47:32.903Z,48.90
2018-07-15T03:50:01.232Z,49.90
2018-07-15T03:52:29.505Z,49.30
2018-07-15T03:54:57.747Z,48.20
2018-07-15T03:57:25.993Z,47.70
2018-07-15T03:59:54.249Z,47.80
2018-07-15T04:02:22.493Z,47.60
2018-07-15T04:04:50.941Z,47.00
2018-07-15T04:07:19.538Z,46.90
2018-07-15T04:09:47.740Z,46.70
2018-07-15T04:12:15.988Z,46.60
2018-07-15T04:14:44.289Z,46.40
2018-07-15T04:17:12.649Z,46.40
2018-07-15T04:19:40.921Z,46.30
2018-07-15T04:22:09.221Z,46.30
2018-07-15T04:24:37.474Z,47.00
2018-07-15T04:29:34.862Z,47.20
2018-07-15T04:32:03.133Z,47.00
2018-07-15T04:34:31.702Z,46.20
2018-07-15T04:37:00.113Z,46.00
2018-07-15T04:39:28.467Z,46.00
2018-07-15T04:41:56.790Z,45.80
2018-07-15T04:44:25.029Z,45.80
2018-07-15T04:46:53.322Z,45.60
2018-07-15T04:49:21.772Z,45.50
2018-07-15T04:51:50.149Z,45.70
2018-07-15T04:54:18.454Z,45.50
2018-07-15T04:56:46.714Z,45.70
2018-07-15T04:59:15.007Z,45.30
2018-07-15T05:01:43.845Z,45.30
2018-07-15T05:04:13.721Z,45.30
2018-07-15T05:06:42.123Z,45.20
2018-07-15T05:09:10.413Z,45.80
2018-07-15T05:11:39.175Z,45.30
2018-07-15T05:14:08.781Z,44.80
2018-07-15T05:16:38.707Z,44.80
2018-07-15T05:19:07.062Z,44.90
2018-07-15T05:21:35.716Z,44.90
2018-07-15T05:24:03.986Z,44.80
2018-07-15T05:26:32.215Z,44.90
2018-07-15T05:29:00.490Z,44.70
2018-07-15T05:31:28.834Z,44.90
2018-07-15T05:33:57.467Z,45.10
2018-07-15T05:36:25.692Z,45.30
2018-07-15T05:38:53.984Z,44.90
2018-07-15T05:41:23.217Z,45.10
2018-07-15T05:43:51.553Z,45.10
2018-07-15T05:46:19.842Z,45.10
2018-07-15T05:48:48.081Z,44.60
2018-07-15T05:51:16.305Z,44.50
2018-07-15T05:53:45.130Z,44.40
2018-07-15T05:56:13.386Z,43.60
2018-07-15T05:58:41.614Z,43.30
2018-07-15T06:01:09.888Z,43.00
2018-07-15T06:03:38.121Z,43.30
2018-07-15T06:06:06.447Z,42.80
2018-07-15T06:08:34.738Z,43.30
2018-07-15T06:11:03.762Z,43.40
2018-07-15T06:13:32.100Z,43.60
2018-07-15T06:16:00.311Z,43.50
2018-07-15T06:18:28.708Z,43.60
2018-07-15T06:20:57.006Z,43.00
2018-07-15T06:23:25.221Z,43.40
2018-07-15T06:25:53.486Z,43.00
2018-07-15T06:28:22.205Z,42.70
2018-07-15T06:30:50.576Z,42.40
2018-07-15T06:33:18.830Z,42.60
2018-07-15T06:35:47.862Z,41.90
2018-07-15T06:38:16.189Z,42.10
2018-07-15T06:40:44.531Z,41.90
2018-07-15T06:43:13.077Z,41.60
2018-07-15T06:45:41.331Z,41.30
2018-07-15T06:48:09.577Z,42.00
2018-07-15T06:50:37.809Z,41.30
2018-07-15T06:53:06.144Z,41.50
2018-07-15T06:55:34.386Z,40.90
2018-07-15T06:58:02.641Z,41.00
2018-07-15T07:00:31.107Z,40.50
2018-07-15T07:02:59.484Z,40.00
2018-07-15T07:05:27.734Z,40.60
2018-07-15T07:07:55.981Z,40.20
2018-07-15T07:10:24.195Z,39.90
2018-07-15T07:12:52.849Z,39.30
2018-07-15T07:15:21.085Z,39.10
2018-07-15T07:17:49.382Z,39.30
2018-07-15T07:20:17.625Z,38.10
2018-07-15T07:22:45.845Z,38.00
2018-07-15T07:25:14.172Z,36.90
2018-07-15T07:27:42.417Z,36.80
2018-07-15T07:30:10.725Z,35.80
2018-07-15T07:32:39.025Z,34.90
2018-07-15T07:35:07.591Z,34.50
2018-07-15T07:37:36.432Z,34.90
2018-07-15T07:40:04.705Z,33.90
2018-07-15T07:42:33.030Z,33.20
2018-07-15T07:45:01.375Z,33.80
2018-07-15T07:47:29.680Z,32.50
2018-07-15T07:49:58.242Z,31.70
2018-07-15T07:52:26.494Z,30.70
2018-07-15T07:54:54.754Z,29.70
2018-07-15T07:59:51.104Z,28.70
2018-07-15T08:02:19.489Z,28.10
2018-07-15T08:04:47.762Z,27.30
2018-07-15T08:07:16.026Z,26.70
2018-07-15T08:09:44.393Z,26.30
2018-07-15T08:12:12.731Z,26.20
2018-07-15T08:14:40.969Z,26.10
2018-07-15T08:17:09.229Z,25.80
2018-07-15T08:19:37.713Z,25.90
2018-07-15T08:22:05.962Z,24.90
2018-07-15T08:36:05.020Z,21.50
2018-07-15T08:38:33.265Z,20.40
2018-07-15T08:41:01.501Z,20.30
2018-07-15T08:43:29.822Z,20.10
2018-07-15T08:48:26.333Z,19.10
2018-07-15T08:50:54.570Z,18.50
2018-07-15T08:53:22.909Z,17.90
2018-07-15T08:58:19.357Z,17.50
2018-07-15T09:00:47.670Z,17.00
2018-07-15T09:03:16.668Z,18.20
2018-07-15T09:05:45.141Z,19.20
2018-07-15T09:08:13.419Z,20.40
2018-07-15T09:10:41.713Z,21.20
2018-07-15T09:13:09.993Z,21.70
2018-07-15T09:15:38.249Z,22.30
2018-07-15T09:18:06.660Z,22.60
2018-07-15T09:20:35.018Z,21.90
2018-07-15T09:25:31.933Z,21.10
2018-07-15T09:28:00.324Z,21.40
2018-07-15T09:30:29.289Z,19.60
2018-07-15T09:32:57.494Z,18.30
2018-07-15T09:35:25.756Z,16.90
2018-07-15T09:37:54.037Z,15.80
2018-07-15T09:40:22.918Z,15.00
2018-07-15T09:42:51.496Z,14.30
2018-07-15T09:45:20.825Z,13.80
2018-07-15T09:52:46.320Z,13.90
2018-07-15T09:55:15.262Z,13.30
2018-07-15T10:00:17.602Z,12.70
2018-07-15T10:02:45.802Z,13.10
2018-07-15T10:05:14.637Z,12.10
2018-07-15T10:07:42.876Z,12.00
2018-07-15T10:10:11.251Z,12.10
2018-07-15T10:12:39.450Z,12.10
2018-07-15T10:17:35.906Z,12.00
2018-07-15T10:20:04.263Z,12.20
2018-07-15T10:22:32.488Z,11.70
2018-07-15T10:25:00.778Z,11.60
2018-07-15T10:27:29.105Z,12.00
2018-07-15T10:29:58.362Z,12.00
2018-07-15T10:32:26.605Z,12.00
2018-07-15T10:39:50.869Z,12.80
2018-07-15T10:42:19.097Z,13.70
2018-07-15T10:44:47.514Z,13.60
2018-07-15T10:47:15.721Z,14.10
2018-07-15T10:49:44.043Z,14.90
2018-07-15T10:52:12.390Z,15.80
2018-07-15T10:54:40.586Z,16.20
2018-07-15T10:59:37.493Z,17.70
2018-07-15T11:02:08.230Z,18.40
2018-07-15T11:04:37.018Z,19.40
2018-07-15T11:07:05.254Z,19.90
2018-07-15T11:09:33.675Z,19.80
2018-07-15T11:12:01.897Z,20.00
2018-07-15T11:14:30.954Z,21.00
2018-07-15T11:16:59.377Z,21.20
2018-07-15T11:19:27.673Z,21.40
2018-07-15T11:21:55.878Z,21.90
2018-07-15T11:24:24.078Z,22.20
2018-07-15T11:26:53.306Z,21.20
2018-07-15T11:29:21.890Z,22.50
2018-07-15T11:31:50.077Z,23.20
2018-07-15T11:34:18.327Z,23.70
2018-07-15T11:36:46.635Z,23.60
2018-07-15T11:39:15.401Z,24.00
2018-07-15T11:41:43.701Z,23.90
2018-07-15T11:44:11.930Z,23.40
2018-07-15T11:46:40.247Z,23.00
2018-07-15T11:49:08.589Z,22.80
2018-07-15T11:51:36.975Z,23.00
2018-07-15T11:54:05.223Z,22.90
2018-07-15T11:56:33.553Z,22.80
2018-07-15T11:59:01.885Z,23.00
2018-07-15T12:01:30.188Z,24.00
2018-07-15T12:03:58.989Z,25.20
2018-07-15T12:06:27.237Z,25.50
2018-07-15T12:08:55.505Z,25.20
2018-07-15T12:11:23.893Z,25.50
2018-07-15T12:13:52.254Z,25.60
2018-07-15T12:16:20.802Z,25.60
2018-07-15T12:18:49.013Z,25.60
2018-07-15T12:21:17.400Z,25.50
2018-07-15T12:23:46.010Z,25.60
2018-07-15T12:26:14.781Z,26.00
2018-07-15T12:28:43.710Z,26.30
2018-07-15T12:31:12.206Z,26.80
2018-07-15T12:33:40.449Z,26.40
2018-07-15T12:36:08.705Z,26.50
2018-07-15T12:38:37.046Z,26.20
2018-07-15T12:41:05.624Z,26.50
2018-07-15T12:43:33.953Z,26.40
2018-07-15T12:46:02.108Z,26.60
2018-07-15T12:48:31.069Z,26.90
2018-07-15T12:50:59.305Z,27.40
2018-07-15T12:53:27.610Z,26.90
2018-07-15T12:55:55.809Z,28.40
2018-07-15T12:58:24.073Z,28.30
2018-07-15T13:00:52.421Z,29.50
2018-07-15T13:03:20.786Z,28.00
2018-07-15T13:05:49.042Z,28.50
2018-07-15T13:08:17.274Z,27.70
2018-07-15T13:10:45.568Z,26.30
2018-07-15T13:13:13.873Z,26.40
2018-07-15T13:15:42.355Z,26.20
2018-07-15T13:18:10.632Z,25.40
2018-07-15T13:20:38.910Z,25.20
2018-07-15T13:23:07.445Z,25.30
2018-07-15T13:25:35.773Z,25.00
2018-07-15T13:28:04.032Z,24.90
2018-07-15T13:30:32.227Z,24.70
2018-07-15T13:33:00.525Z,26.10
2018-07-15T13:35:28.877Z,25.90
2018-07-15T13:40:25.093Z,25.30
2018-07-15T13:42:53.858Z,25.90
2018-07-15T13:45:22.845Z,25.00
2018-07-15T13:47:51.235Z,24.90
2018-07-15T13:50:19.429Z,24.50
2018-07-15T13:52:47.643Z,24.70
2018-07-15T13:55:15.858Z,24.90
2018-07-15T13:57:44.584Z,25.50
2018-07-15T14:00:13.481Z,26.70
2018-07-15T14:02:41.690Z,28.00
2018-07-15T14:05:09.941Z,29.40
2018-07-15T14:07:38.150Z,29.80
2018-07-15T14:10:06.435Z,32.30
2018-07-15T14:12:34.662Z,31.70
2018-07-15T14:15:02.967Z,33.20
2018-07-15T14:17:31.169Z,37.40
2018-07-15T14:19:59.570Z,33.30
2018-07-15T14:22:28.893Z,34.60
2018-07-15T14:24:57.146Z,33.90
2018-07-15T14:27:25.399Z,34.20
2018-07-15T14:29:53.681Z,30.90
2018-07-15T14:32:22.021Z,31.50
2018-07-15T14:34:50.236Z,31.60
2018-07-15T14:37:20.227Z,29.80
2018-07-15T14:39:48.473Z,29.80
2018-07-15T14:42:16.714Z,29.40
2018-07-15T14:44:45.579Z,24.60
2018-07-15T14:47:14.174Z,24.10
2018-07-15T14:49:42.385Z,25.20
2018-07-15T14:52:10.686Z,24.40
2018-07-15T14:54:38.951Z,24.70
2018-07-15T14:57:07.786Z,24.40
2018-07-15T14:59:36.393Z,23.40
2018-07-15T15:02:04.737Z,22.70
2018-07-15T15:04:32.988Z,23.70
2018-07-15T15:07:01.216Z,23.40
2018-07-15T15:09:30.358Z,23.90
2018-07-15T15:11:58.723Z,24.70
2018-07-15T15:14:27.012Z,24.40
2018-07-15T15:16:55.239Z,24.50
2018-07-15T15:19:23.504Z,24.60
2018-07-15T15:21:51.841Z,24.70
2018-07-15T15:24:20.330Z,24.90
2018-07-15T15:29:16.622Z,25.00
2018-07-15T15:31:44.900Z,25.00
2018-07-15T15:34:13.190Z,25.20
2018-07-15T15:39:09.395Z,25.30
2018-07-15T15:41:37.883Z,25.50
2018-07-15T15:44:06.183Z,26.30
2018-07-15T15:46:34.457Z,25.60
2018-07-15T15:49:02.812Z,26.30
2018-07-15T15:51:31.204Z,25.80
2018-07-15T15:53:59.444Z,24.70
2018-07-15T15:56:28.081Z,25.50
2018-07-15T15:58:56.280Z,25.70
2018-07-15T16:01:24.557Z,25.80
2018-07-15T16:03:52.967Z,25.50
2018-07-15T16:06:24.166Z,26.00
2018-07-15T16:08:52.518Z,26.10
2018-07-15T16:11:20.982Z,26.40
2018-07-15T16:13:49.469Z,26.30
2018-07-15T16:16:17.729Z,26.40
2018-07-15T16:18:46.007Z,26.80
2018-07-15T16:21:14.396Z,26.30
2018-07-15T16:23:43.537Z,26.20
2018-07-15T16:26:11.868Z,25.80
2018-07-15T16:28:40.111Z,26.40
2018-07-15T16:31:08.371Z,26.00
2018-07-15T16:33:36.830Z,26.40
2018-07-15T16:36:05.080Z,26.00
2018-07-15T16:38:33.331Z,25.90
2018-07-15T16:41:01.586Z,26.20
2018-07-15T16:43:30.063Z,26.10
2018-07-15T16:45:58.437Z,26.50
2018-07-15T16:48:26.661Z,26.80
2018-07-15T16:50:54.929Z,26.80
2018-07-15T16:53:23.141Z,27.00
2018-07-15T16:55:51.569Z,27.20
2018-07-15T16:58:19.798Z,27.00
2018-07-15T17:00:48.074Z,27.40
2018-07-15T17:03:16.393Z,27.50
2018-07-15T17:05:44.746Z,28.10
2018-07-15T17:08:13.098Z,28.50
2018-07-15T17:10:41.370Z,29.10
2018-07-15T17:13:09.625Z,29.20
2018-07-15T17:15:38.606Z,29.50
2018-07-15T17:18:07.082Z,29.50
2018-07-15T17:20:35.365Z,29.00
2018-07-15T17:23:03.555Z,28.90
2018-07-15T17:25:31.994Z,29.10
2018-07-15T17:28:00.339Z,28.30
2018-07-15T17:30:28.558Z,29.00
2018-07-15T17:35:24.742Z,29.00
2018-07-15T17:40:21.326Z,29.00
2018-07-15T17:42:49.601Z,28.60
2018-07-15T17:45:17.854Z,28.80
2018-07-15T17:47:46.085Z,28.30
2018-07-15T17:50:14.448Z,28.60
2018-07-15T17:52:42.853Z,27.80
2018-07-15T17:55:11.061Z,27.90
2018-07-15T17:57:39.312Z,27.80
2018-07-15T18:00:08.090Z,28.00
2018-07-15T18:02:36.496Z,28.40
2018-07-15T18:05:04.802Z,28.60
2018-07-15T18:07:33.018Z,28.30
2018-07-15T18:10:01.257Z,28.80
2018-07-15T18:12:29.669Z,28.60
2018-07-15T18:14:58.223Z,28.70
2018-07-15T18:17:26.480Z,29.10
2018-07-15T18:19:54.716Z,29.60
2018-07-15T18:22:22.998Z,29.50
2018-07-15T18:24:51.208Z,30.20
2018-07-15T18:27:19.490Z,30.40
2018-07-15T18:29:47.701Z,31.00
2018-07-15T18:32:15.929Z,31.10
2018-07-15T18:34:44.395Z,31.30
2018-07-15T18:37:12.688Z,31.20
2018-07-15T18:39:40.955Z,31.20
2018-07-15T18:42:09.244Z,31.40
2018-07-15T18:44:37.658Z,31.40
2018-07-15T18:47:06.385Z,32.20
2018-07-15T18:49:34.710Z,32.60
2018-07-15T18:52:03.113Z,32.60
2018-07-15T18:54:31.357Z,33.00
2018-07-15T18:57:00.318Z,33.20
2018-07-15T18:59:28.637Z,33.30
2018-07-15T19:01:56.921Z,33.70
2018-07-15T19:04:25.185Z,33.80
2018-07-15T19:06:53.435Z,34.60
2018-07-15T19:09:21.673Z,34.00
2018-07-15T19:11:49.939Z,33.60
2018-07-15T19:14:18.213Z,33.80
2018-07-15T19:16:46.452Z,33.90
2018-07-15T19:19:14.718Z,34.00
2018-07-15T19:21:43.016Z,34.60
2018-07-15T19:24:11.306Z,34.40
2018-07-15T19:26:39.546Z,34.80
2018-07-15T19:29:07.874Z,35.20
2018-07-15T19:31:36.939Z,36.20
2018-07-15T19:34:05.270Z,35.90
2018-07-15T19:36:33.686Z,34.70
2018-07-15T19:39:01.987Z,34.90
2018-07-15T19:41:30.264Z,34.90
2018-07-15T19:43:59.740Z,35.60
2018-07-15T19:48:56.053Z,36.00
2018-07-15T19:51:24.276Z,36.10
2018-07-15T19:53:52.606Z,37.00
2018-07-15T19:56:21.021Z,37.10
2018-07-15T19:58:49.244Z,37.40
2018-07-15T20:01:17.497Z,37.80
2018-07-15T20:03:45.757Z,38.20
2018-07-15T20:06:14.049Z,38.20
2018-07-15T20:08:42.309Z,38.70
2018-07-15T20:11:10.535Z,38.70
2018-07-15T20:13:38.769Z,38.40
2018-07-15T20:16:07.057Z,39.10
2018-07-15T20:18:35.457Z,39.60
2018-07-15T20:21:03.651Z,39.90
2018-07-15T20:23:31.893Z,40.30
2018-07-15T20:26:00.184Z,40.60
2018-07-15T20:28:28.800Z,40.00
2018-07-15T20:30:57.021Z,40.40
2018-07-15T20:33:25.337Z,40.80
2018-07-15T20:35:53.610Z,41.40
2018-07-15T20:38:22.417Z,41.40
2018-07-15T20:40:50.740Z,41.50
2018-07-15T20:43:19.001Z,42.00
2018-07-15T20:45:47.330Z,41.90
2018-07-15T20:48:15.745Z,42.20
2018-07-15T20:50:44.244Z,42.30
2018-07-15T20:53:12.518Z,42.50
2018-07-15T20:55:40.866Z,42.80
2018-07-15T20:58:09.195Z,42.80
2018-07-15T21:00:37.805Z,43.20
2018-07-15T21:03:06.065Z,42.80
2018-07-15T21:05:34.414Z,42.60
2018-07-15T21:08:02.658Z,42.70
2018-07-15T21:10:31.028Z,43.10
2018-07-15T21:12:59.420Z,43.20
2018-07-15T21:15:27.693Z,42.90
2018-07-15T21:17:56.066Z,42.60
2018-07-15T21:20:24.505Z,43.20
2018-07-15T21:22:52.794Z,42.80
2018-07-15T21:25:21.374Z,42.40
2018-07-15T21:27:49.617Z,41.90
2018-07-15T21:30:18.812Z,41.80
2018-07-15T21:32:47.209Z,42.40
2018-07-15T21:35:15.897Z,42.60
2018-07-15T21:37:44.835Z,42.60
2018-07-15T21:40:13.431Z,42.80
2018-07-15T21:42:41.634Z,42.70
2018-07-15T21:45:09.954Z,42.60
2018-07-15T21:47:38.223Z,43.20
2018-07-15T21:50:06.796Z,42.70
2018-07-15T21:52:35.006Z,43.00
2018-07-15T21:55:03.234Z,43.10
2018-07-15T21:57:31.451Z,43.30
2018-07-15T21:59:59.795Z,42.70
2018-07-15T22:02:27.975Z,42.40
2018-07-15T22:04:57.458Z,42.90
2018-07-15T22:07:37.170Z,42.90
2018-07-15T22:10:14.599Z,43.10
2018-07-15T22:12:43.639Z,42.80
2018-07-15T22:15:12.102Z,42.80
2018-07-15T22:20:11.684Z,41.50
2018-07-15T22:22:40.018Z,41.30
2018-07-15T22:25:08.406Z,41.00
2018-07-15T22:27:37.366Z,41.30
2018-07-15T22:30:05.795Z,41.70
2018-07-15T22:32:37.253Z,42.30
2018-07-15T22:35:05.586Z,42.60
2018-07-15T22:37:33.997Z,43.10
2018-07-15T22:40:02.590Z,42.90
2018-07-15T22:42:30.828Z,42.90
2018-07-15T22:44:59.301Z,43.40
2018-07-15T22:47:27.582Z,43.70
2018-07-15T22:52:23.840Z,44.20
2018-07-15T22:54:52.217Z,43.80
2018-07-15T22:57:20.537Z,43.50
2018-07-15T22:59:48.789Z,44.00
2018-07-15T23:02:17.086Z,44.80
2018-07-15T23:05:56.402Z,44.70
2018-07-15T23:08:25.517Z,44.40
2018-07-15T23:10:53.829Z,44.60
2018-07-15T23:13:22.747Z,44.90
2018-07-15T23:15:51.385Z,44.50
2018-07-15T23:18:19.654Z,44.10
2018-07-15T23:20:48.725Z,44.80
2018-07-15T23:23:17.070Z,44.40
2018-07-15T23:25:46.610Z,44.50
2018-07-15T23:28:16.114Z,44.40
2018-07-15T23:30:44.908Z,44.20
2018-07-15T23:33:13.484Z,44.10
2018-07-15T23:35:41.703Z,44.10
2018-07-15T23:38:09.928Z,44.60
2018-07-15T23:40:38.337Z,43.80
2018-07-15T23:43:06.683Z,43.80
2018-07-15T23:48:03.924Z,43.10
2018-07-15T23:50:32.149Z,42.70
2018-07-15T23:53:00.550Z,43.20
2018-07-15T23:55:29.013Z,43.30
2018-07-15T23:57:57.521Z,43.20
